Newton, MS (39345)

11:02 AM CDT on July 26, 2016 (GMT -0500)
WTOK-TV Decatur | | Change Station

Elev 449 ft 32.44 °N, 89.11 °W | Updated 14 minutes ago

Scattered Clouds
Scattered Clouds
85.4 °F
Feels Like 96 °F
N
1.0
Wind Variable Wind from NE

Today
High -- | Low -- °F
--% Chance of Precip.
Yesterday
High -- | Low -- °F
Precip. -- in
Pressure 29.99 in
Visibility 10.0 miles
Clouds Few 2900 ft
Scattered Clouds 4400 ft
Heat Index 96 °F
Dew Point 77 °F
Humidity 76%
Rainfall 0.00 in
Snow Depth Not available.
6:07 AM 7:58 PM
Waning Gibbous, 53% visible
METAR KMEI 261558Z 06009KT 10SM FEW029 SCT044 33/23 A3001 RMK AO2 SLP156 T03280233
Pressure 29.99 in
Visibility 10.0 miles
Clouds Few 2900 ft
Scattered Clouds 4400 ft
Heat Index 96 °F
Dew Point 77 °F
Humidity 76%
Rainfall 0.00 in
Snow Depth Not available.
6:07 AM 7:58 PM
Waning Gibbous, 53% visible
METAR KMEI 261558Z 06009KT 10SM FEW029 SCT044 33/23 A3001 RMK AO2 SLP156 T03280233

10-Day Weather Forecast

Almanac

Astronomy

Jul. 26, 2016 Rise Set
Actual Time
Civil Twilight
Nautical Twilight
Astronomical Twilight
Moon
Length of Visible Light
Length of Day
Tomorrow will be .
, % of the Moon is Illuminated

Today's Extremes

State Highs State Lows

Community

WunderPhotos

Upload Photos

1,927,625 photos uploaded!

WunderBlog® & News

Nearby

Air Quality

  Air Quality AQ Index Pollutant
Not available.

Snow Depth

Station Depth Elevation

Earthquake Activity

City Distance Mag. Time & Date
Minimum magnitude displayed is 2.5.

Coastal Water Temperatures

Place Temperature

Stations

Nearby Weather Stations

Station Location Temp. Windchill Dew Point Humidity Wind Precip. Elev Updated Type
                   

Watches & Warnings

There are currently no watches in effect.